createdAt,value
2023-02-02T00:04:49.448Z,98511.16
2023-02-02T00:09:52.049Z,98510.23
2023-02-02T00:14:54.673Z,98498.64
2023-02-02T00:19:57.382Z,98500.01
2023-02-02T00:25:00.047Z,98497.90
2023-02-02T00:30:03.853Z,98500.36
2023-02-02T00:35:08.092Z,98499.52
2023-02-02T00:40:11.405Z,98501.67
2023-02-02T00:45:16.744Z,98492.07
2023-02-02T00:50:21.156Z,98487.30
2023-02-02T00:55:24.783Z,98495.06
2023-02-02T01:00:28.384Z,98500.67
2023-02-02T01:05:31.901Z,98502.59
2023-02-02T01:10:35.511Z,98496.92
2023-02-02T01:15:38.232Z,98489.88
2023-02-02T01:20:40.902Z,98492.20
2023-02-02T01:25:43.569Z,98491.92
2023-02-02T01:30:46.314Z,98492.73
2023-02-02T01:35:51.563Z,98489.47
2023-02-02T01:40:56.435Z,98486.46
2023-02-02T01:45:59.261Z,98485.84
2023-02-02T01:51:06.665Z,98489.59
2023-02-02T01:56:12.502Z,98489.26
2023-02-02T02:01:15.225Z,98485.96
2023-02-02T02:06:19.837Z,98484.30
2023-02-02T02:11:23.931Z,98481.88
2023-02-02T02:16:29.437Z,98481.19
2023-02-02T02:21:52.184Z,98485.02
2023-02-02T02:26:57.900Z,98478.20
2023-02-02T02:32:06.283Z,98479.23
2023-02-02T02:37:16.591Z,98472.17
2023-02-02T02:42:24.191Z,98469.99
2023-02-02T02:47:30.226Z,98476.41
2023-02-02T02:52:34.553Z,98477.16
2023-02-02T02:57:42.020Z,98480.00
2023-02-02T03:02:47.600Z,98475.70
2023-02-02T03:08:01.226Z,98472.56
2023-02-02T03:13:13.702Z,98473.11
2023-02-02T03:18:19.697Z,98474.28
2023-02-02T03:23:22.349Z,98474.16
2023-02-02T03:28:25.776Z,98477.09
2023-02-02T03:33:29.849Z,98478.85
2023-02-02T03:38:35.336Z,98480.61
2023-02-02T03:43:37.969Z,98485.67
2023-02-02T03:48:40.601Z,98480.80
2023-02-02T03:53:44.680Z,98477.63
2023-02-02T03:58:47.449Z,98480.19
2023-02-02T04:03:50.347Z,98475.60
2023-02-02T04:08:53.171Z,98473.98
2023-02-02T04:13:55.986Z,98469.38
2023-02-02T04:18:58.845Z,98480.34
2023-02-02T04:24:01.514Z,98483.27
2023-02-02T04:29:04.194Z,98489.33
2023-02-02T04:34:06.877Z,98484.00
2023-02-02T04:39:11.750Z,98489.75
2023-02-02T04:44:16.020Z,98490.83
2023-02-02T04:49:18.647Z,98488.92
2023-02-02T04:54:21.453Z,98494.33
2023-02-02T04:59:24.234Z,98494.78
2023-02-02T05:04:27.466Z,98496.42
2023-02-02T05:09:32.474Z,98497.06
2023-02-02T05:14:35.087Z,98497.21
2023-02-02T05:19:38.023Z,98494.46
2023-02-02T05:24:40.648Z,98503.09
2023-02-02T05:29:43.246Z,98508.64
2023-02-02T05:34:45.899Z,98514.27
2023-02-02T05:39:49.798Z,98519.36
2023-02-02T05:44:52.517Z,98524.45
2023-02-02T05:49:55.202Z,98526.00
2023-02-02T05:54:57.801Z,98525.63
2023-02-02T06:00:00.420Z,98525.92
2023-02-02T06:05:03.160Z,98541.98
2023-02-02T06:10:06.102Z,98549.63
2023-02-02T06:15:09.205Z,98551.41
2023-02-02T06:20:12.706Z,98553.82
2023-02-02T06:25:17.650Z,98554.17
2023-02-02T06:30:20.353Z,98563.33
2023-02-02T06:35:23.391Z,98567.09
2023-02-02T06:40:28.148Z,98575.70
2023-02-02T06:45:31.189Z,98577.92
2023-02-02T06:50:33.830Z,98582.58
2023-02-02T06:55:36.451Z,98587.01
2023-02-02T07:00:39.079Z,98594.48
2023-02-02T07:12:49.620Z,98612.27
2023-02-02T07:17:54.703Z,98622.77
2023-02-02T07:22:57.436Z,98627.13
2023-02-02T07:28:00.097Z,98631.64
2023-02-02T07:33:02.897Z,98640.16
2023-02-02T07:38:05.514Z,98644.94
2023-02-02T07:43:08.429Z,98651.46
2023-02-02T07:48:11.023Z,98659.45
2023-02-02T07:53:14.554Z,98666.14
2023-02-02T07:58:17.205Z,98671.54
2023-02-02T08:03:19.799Z,98674.48
2023-02-02T08:08:22.429Z,98680.98
2023-02-02T08:13:25.085Z,98691.55
2023-02-02T08:18:27.741Z,98696.50
2023-02-02T08:23:31.268Z,98703.23
2023-02-02T08:28:36.606Z,98709.35
2023-02-02T08:33:39.902Z,98718.33
2023-02-02T08:38:42.676Z,98725.61
2023-02-02T08:43:45.945Z,98728.95
2023-02-02T08:48:48.937Z,98745.14
2023-02-02T08:53:51.585Z,98756.96
2023-02-02T08:58:56.322Z,98773.98
2023-02-02T09:04:02.261Z,98779.96
2023-02-02T09:09:08.764Z,98786.59
2023-02-02T09:14:13.803Z,98795.89
2023-02-02T09:19:17.147Z,98809.12
2023-02-02T09:24:19.782Z,98822.42
2023-02-02T09:29:22.406Z,98838.93
2023-02-02T09:34:25.153Z,98855.49
2023-02-02T09:39:28.296Z,98874.45
2023-02-02T09:44:33.819Z,98884.60
2023-02-02T09:49:40.098Z,98901.02
2023-02-02T09:54:46.386Z,98905.34
2023-02-02T09:59:50.366Z,98913.16
2023-02-02T10:05:00.549Z,98921.71
2023-02-02T10:10:13.114Z,98933.80
2023-02-02T10:15:30.544Z,98947.48
2023-02-02T10:20:37.065Z,98957.76
2023-02-02T10:25:49.239Z,98959.66
2023-02-02T10:31:01.762Z,98968.52
2023-02-02T10:36:09.831Z,98972.11
2023-02-02T10:41:15.591Z,98984.29
2023-02-02T10:46:22.995Z,98994.66
2023-02-02T10:51:28.210Z,99007.02
2023-02-02T10:56:39.771Z,99014.13
2023-02-02T11:01:42.681Z,99023.86
2023-02-02T11:06:48.315Z,99036.59
2023-02-02T11:11:55.671Z,99043.98
2023-02-02T11:17:03.053Z,99046.41
2023-02-02T11:22:05.860Z,99047.89
2023-02-02T11:27:14.199Z,99064.33
2023-02-02T11:32:28.264Z,99065.46
2023-02-02T11:37:34.582Z,99075.02
2023-02-02T11:42:38.234Z,99088.23
2023-02-02T11:47:41.904Z,99098.09
2023-02-02T11:52:46.310Z,99112.34
2023-02-02T11:57:54.699Z,99118.95
2023-02-02T12:02:59.074Z,99143.15
2023-02-02T12:08:01.989Z,99152.58
2023-02-02T12:13:13.753Z,99157.78
2023-02-02T12:18:22.216Z,99163.41
2023-02-02T12:23:30.651Z,99172.52
2023-02-02T12:28:37.141Z,99188.73
2023-02-02T12:33:41.771Z,99201.09
2023-02-02T12:38:46.767Z,99204.48
2023-02-02T12:44:13.679Z,99203.91
2023-02-02T12:49:45.574Z,99211.24
2023-02-02T12:55:03.656Z,99221.83
2023-02-02T13:00:10.575Z,99229.34
2023-02-02T13:05:19.428Z,99232.84
2023-02-02T13:10:26.311Z,99244.73
2023-02-02T13:15:37.150Z,99250.70
2023-02-02T13:20:45.215Z,99263.41
2023-02-02T13:25:53.553Z,99286.79
2023-02-02T13:30:59.245Z,99294.67
2023-02-02T13:36:08.425Z,99308.29
2023-02-02T13:41:13.376Z,99321.06
2023-02-02T13:46:19.181Z,99331.60
2023-02-02T13:51:27.619Z,99344.71
2023-02-02T13:56:33.253Z,99353.29
2023-02-02T14:01:36.228Z,99355.36
2023-02-02T14:06:44.708Z,99375.52
2023-02-02T14:11:58.436Z,99388.48
2023-02-02T14:17:07.278Z,99399.45
2023-02-02T14:22:09.920Z,99391.64
2023-02-02T14:27:12.704Z,99399.90
2023-02-02T14:32:21.120Z,99413.40
2023-02-02T14:37:23.738Z,99430.46
2023-02-02T14:42:36.047Z,99442.98
2023-02-02T14:48:00.387Z,99448.58
2023-02-02T14:53:31.672Z,99463.68
2023-02-02T14:58:40.434Z,99488.61
2023-02-02T15:03:45.762Z,99501.70
2023-02-02T15:08:54.226Z,99517.11
2023-02-02T15:14:07.061Z,99535.75
2023-02-02T15:19:20.443Z,99549.73
2023-02-02T15:24:27.070Z,99564.39
2023-02-02T15:29:38.407Z,99573.90
2023-02-02T15:34:46.559Z,99589.77
2023-02-02T15:39:53.053Z,99599.23
2023-02-02T15:44:55.790Z,99613.41
2023-02-02T15:49:59.389Z,99623.48
2023-02-02T15:55:02.355Z,99640.44
2023-02-02T16:00:10.752Z,99657.73
2023-02-02T16:05:19.143Z,99673.11
2023-02-02T16:10:22.368Z,99680.05
2023-02-02T16:15:28.299Z,99704.98
2023-02-02T16:20:36.200Z,99719.10
2023-02-02T16:25:46.365Z,99732.32
2023-02-02T16:30:51.709Z,99734.58
2023-02-02T16:35:54.999Z,99756.25
2023-02-02T16:41:02.542Z,99778.75
2023-02-02T16:46:08.581Z,99781.84
2023-02-02T16:51:25.201Z,99793.35
2023-02-02T16:56:32.979Z,99809.66
2023-02-02T17:01:47.051Z,99829.41
2023-02-02T17:06:53.239Z,99835.32
2023-02-02T17:11:59.159Z,99850.83
2023-02-02T17:17:06.124Z,99856.68
2023-02-02T17:22:09.923Z,99867.84
2023-02-02T17:27:17.439Z,99879.89
2023-02-02T17:32:20.094Z,99896.72
2023-02-02T17:37:22.773Z,99904.96
2023-02-02T17:42:27.899Z,99915.45
2023-02-02T17:47:30.562Z,99922.84
2023-02-02T17:52:33.314Z,99929.73
2023-02-02T17:57:36.195Z,99942.08
2023-02-02T18:02:39.141Z,99945.85
2023-02-02T18:07:42.406Z,99954.94
2023-02-02T18:12:45.253Z,99960.42
2023-02-02T18:17:47.853Z,99964.91
2023-02-02T18:22:51.984Z,99979.64
2023-02-02T18:27:57.297Z,99981.88
2023-02-02T18:33:00.535Z,99999.21
2023-02-02T18:38:03.156Z,100012.27
2023-02-02T18:43:05.885Z,100024.95
2023-02-02T18:48:08.681Z,100032.51
2023-02-02T18:53:11.363Z,100039.19
2023-02-02T18:58:14.603Z,100050.52
2023-02-02T19:03:17.295Z,100058.59
2023-02-02T19:08:22.394Z,100067.34
2023-02-02T19:13:25.016Z,100077.29
2023-02-02T19:18:31.661Z,100083.64
2023-02-02T19:23:37.256Z,100092.38
2023-02-02T19:28:39.965Z,100101.82
2023-02-02T19:33:46.311Z,100106.80
2023-02-02T19:38:51.725Z,100116.93
2023-02-02T19:43:58.677Z,100121.57
2023-02-02T19:49:11.569Z,100126.55
2023-02-02T19:54:24.124Z,100131.52
2023-02-02T19:59:32.506Z,100134.44
2023-02-02T20:04:35.148Z,100141.61
2023-02-02T20:09:37.740Z,100153.11
2023-02-02T20:14:41.827Z,100157.56
2023-02-02T20:19:46.178Z,100155.34
2023-02-02T20:24:49.862Z,100156.20
2023-02-02T20:29:54.782Z,100155.69
2023-02-02T20:34:59.226Z,100168.05
2023-02-02T20:40:07.677Z,100173.55
2023-02-02T20:45:10.330Z,100182.98
2023-02-02T20:50:15.429Z,100184.67
2023-02-02T20:55:20.735Z,100200.75
2023-02-02T21:00:27.138Z,100196.61
2023-02-02T21:05:29.988Z,100200.34
2023-02-02T21:10:32.678Z,100203.73
2023-02-02T21:15:35.294Z,100201.65
2023-02-02T21:20:37.952Z,100220.17
2023-02-02T21:25:40.589Z,100229.27
2023-02-02T21:30:45.919Z,100234.42
2023-02-02T21:35:48.602Z,100240.89
2023-02-02T21:40:56.263Z,100241.86
2023-02-02T21:46:02.866Z,100239.57
2023-02-02T21:51:11.671Z,100245.34
2023-02-02T21:56:37.065Z,100258.84
2023-02-02T22:01:40.312Z,100272.54
2023-02-02T22:06:47.677Z,100284.18
2023-02-02T22:11:58.996Z,100296.46
2023-02-02T22:17:01.667Z,100299.15
2023-02-02T22:22:07.155Z,100311.09
2023-02-02T22:27:15.553Z,100321.48
2023-02-02T22:32:18.180Z,100334.16
2023-02-02T22:37:20.831Z,100335.29
2023-02-02T22:42:23.449Z,100339.58
2023-02-02T22:47:26.094Z,100348.16
2023-02-02T22:52:28.716Z,100347.04
2023-02-02T22:57:31.354Z,100344.94
2023-02-02T23:02:34.043Z,100353.48
2023-02-02T23:07:37.107Z,100349.36
2023-02-02T23:12:41.465Z,100349.93
2023-02-02T23:17:44.129Z,100348.08
2023-02-02T23:22:46.821Z,100353.03
2023-02-02T23:27:49.783Z,100353.52
2023-02-02T23:32:53.054Z,100354.56
2023-02-02T23:37:55.659Z,100354.08
2023-02-02T23:42:58.260Z,100349.14
2023-02-02T23:48:01.206Z,100346.42
2023-02-02T23:53:05.561Z,100347.85
2023-02-02T23:58:09.120Z,100360.37
